createdAt,value
2023-01-21T00:01:03.870Z,3.30
2023-01-21T00:03:31.330Z,1.40
2023-01-21T00:05:58.561Z,1.40
2023-01-21T00:08:26.752Z,2.20
2023-01-21T00:10:54.749Z,1.60
2023-01-21T00:13:21.913Z,1.70
2023-01-21T00:15:49.169Z,2.10
2023-01-21T00:18:16.223Z,2.20
2023-01-21T00:20:45.483Z,1.50
2023-01-21T00:23:12.451Z,1.70
2023-01-21T00:25:39.588Z,2.00
2023-01-21T00:28:06.615Z,2.20
2023-01-21T00:30:33.717Z,1.80
2023-01-21T00:33:00.793Z,1.60
2023-01-21T00:35:28.381Z,1.50
2023-01-21T00:37:55.363Z,1.40
2023-01-21T00:40:22.496Z,2.50
2023-01-21T00:42:49.490Z,2.10
2023-01-21T00:45:17.034Z,1.90
2023-01-21T00:47:44.331Z,1.50
2023-01-21T00:50:11.334Z,2.10
2023-01-21T00:52:38.545Z,2.30
2023-01-21T00:55:06.197Z,1.30
2023-01-21T00:57:33.604Z,2.90
2023-01-21T01:00:00.892Z,1.50
2023-01-21T01:02:27.987Z,1.20
2023-01-21T01:04:55.018Z,1.50
2023-01-21T01:07:22.214Z,0.80
2023-01-21T01:09:49.298Z,1.60
2023-01-21T01:12:16.262Z,1.30
2023-01-21T01:14:43.391Z,1.10
2023-01-21T01:17:10.441Z,1.10
2023-01-21T01:19:37.395Z,1.20
2023-01-21T01:22:04.439Z,1.60
2023-01-21T01:24:31.667Z,0.90
2023-01-21T01:26:58.731Z,1.60
2023-01-21T01:29:26.250Z,1.50
2023-01-21T01:31:53.406Z,1.10
2023-01-21T01:34:20.489Z,0.60
2023-01-21T01:36:48.869Z,1.00
2023-01-21T01:39:16.017Z,0.80
2023-01-21T01:41:43.141Z,0.90
2023-01-21T01:44:47.334Z,1.50
2023-01-21T01:47:15.316Z,0.80
2023-01-21T01:49:42.685Z,2.50
2023-01-21T01:52:12.496Z,0.60
2023-01-21T01:54:44.811Z,0.60
2023-01-21T01:57:15.554Z,1.80
2023-01-21T01:59:43.078Z,0.90
2023-01-21T02:02:15.317Z,0.70
2023-01-21T02:04:47.449Z,1.00
2023-01-21T02:09:42.788Z,0.80
2023-01-21T02:12:09.851Z,0.80
2023-01-21T02:14:42.376Z,0.50
2023-01-21T02:17:27.384Z,0.60
2023-01-21T02:20:13.079Z,0.80
2023-01-21T02:23:09.456Z,0.70
2023-01-21T02:25:45.223Z,1.30
2023-01-21T02:28:50.577Z,1.10
2023-01-21T02:31:44.119Z,1.10
2023-01-21T02:34:19.088Z,1.00
2023-01-21T02:37:00.406Z,1.40
2023-01-21T02:40:04.994Z,1.40
2023-01-21T02:43:01.178Z,2.00
2023-01-21T02:45:40.173Z,3.40
2023-01-21T02:48:07.156Z,3.90
2023-01-21T02:50:47.897Z,4.00
2023-01-21T02:53:27.062Z,3.60
2023-01-21T02:56:01.235Z,4.40
2023-01-21T02:58:32.840Z,4.30
2023-01-21T03:01:12.496Z,5.00
2023-01-21T03:03:48.624Z,4.40
2023-01-21T03:06:30.844Z,4.70
2023-01-21T03:11:55.702Z,4.40
2023-01-21T03:14:48.946Z,4.10
2023-01-21T03:17:25.343Z,2.90
2023-01-21T03:19:59.273Z,2.60
2023-01-21T03:22:30.902Z,2.60
2023-01-21T03:24:59.799Z,2.60
2023-01-21T03:27:30.485Z,3.50
2023-01-21T03:30:03.310Z,2.50
2023-01-21T03:32:34.296Z,2.30
2023-01-21T03:35:05.415Z,2.40
2023-01-21T03:37:39.704Z,2.00
2023-01-21T03:40:23.536Z,1.70
2023-01-21T03:42:52.250Z,1.20
2023-01-21T03:45:32.597Z,1.70
2023-01-21T03:48:08.802Z,2.90
2023-01-21T03:50:45.124Z,2.30
2023-01-21T03:53:12.428Z,2.70
2023-01-21T03:55:39.385Z,2.90
2023-01-21T03:58:06.511Z,3.30
2023-01-21T04:00:33.825Z,3.40
2023-01-21T04:03:01.086Z,4.10
2023-01-21T04:05:28.257Z,6.30
2023-01-21T04:07:55.536Z,7.20
2023-01-21T04:10:22.499Z,9.70
2023-01-21T04:12:49.632Z,10.70
2023-01-21T04:15:17.169Z,5.50
2023-01-21T04:17:44.382Z,5.10
2023-01-21T04:20:12.157Z,4.00
2023-01-21T04:22:39.357Z,3.30
2023-01-21T04:25:06.821Z,4.30
2023-01-21T04:27:34.004Z,2.90
2023-01-21T04:30:01.120Z,2.70
2023-01-21T04:32:28.205Z,4.70
2023-01-21T04:34:55.350Z,3.00
2023-01-21T04:37:22.561Z,3.00
2023-01-21T04:39:49.712Z,3.10
2023-01-21T04:42:17.220Z,4.90
2023-01-21T04:44:44.555Z,2.90
2023-01-21T04:47:11.689Z,3.80
2023-01-21T04:49:39.028Z,3.10
2023-01-21T04:52:06.194Z,4.50
2023-01-21T04:54:33.308Z,3.60
2023-01-21T04:57:01.307Z,2.90
2023-01-21T04:59:28.510Z,5.90
2023-01-21T05:01:55.988Z,4.90
2023-01-21T05:04:23.113Z,4.10
2023-01-21T05:06:50.473Z,3.30
2023-01-21T05:09:17.719Z,3.40
2023-01-21T05:11:44.955Z,9.40
2023-01-21T05:14:12.219Z,18.70
2023-01-21T05:16:39.288Z,10.30
2023-01-21T05:19:06.329Z,17.40
2023-01-21T05:21:33.638Z,18.50
2023-01-21T05:24:00.721Z,17.10
2023-01-21T05:26:27.927Z,19.40
2023-01-21T05:28:55.102Z,24.30
2023-01-21T05:31:22.325Z,22.20
2023-01-21T05:33:49.764Z,17.30
2023-01-21T05:36:16.909Z,24.20
2023-01-21T05:38:44.152Z,25.10
2023-01-21T05:41:11.362Z,27.20
2023-01-21T05:43:38.610Z,17.40
2023-01-21T05:46:06.242Z,16.10
2023-01-21T05:48:33.409Z,17.10
2023-01-21T05:51:00.584Z,19.60
2023-01-21T05:53:28.594Z,15.60
2023-01-21T05:55:56.694Z,15.50
2023-01-21T05:58:24.730Z,13.70
2023-01-21T06:00:52.262Z,14.00
2023-01-21T06:03:20.018Z,13.40
2023-01-21T06:05:49.159Z,11.40
2023-01-21T06:08:16.903Z,11.20
2023-01-21T06:10:45.088Z,11.00
2023-01-21T06:13:13.783Z,12.70
2023-01-21T06:15:41.109Z,9.30
2023-01-21T06:18:08.586Z,9.90
2023-01-21T06:20:35.817Z,9.20
2023-01-21T06:23:03.849Z,6.70
2023-01-21T06:25:32.405Z,7.00
2023-01-21T06:28:00.783Z,6.40
2023-01-21T06:30:28.060Z,13.90
2023-01-21T06:32:55.497Z,9.70
2023-01-21T06:35:22.753Z,13.70
2023-01-21T06:37:49.814Z,15.70
2023-01-21T06:40:17.668Z,18.80
2023-01-21T06:42:47.930Z,22.10
2023-01-21T06:45:16.824Z,18.40
2023-01-21T06:47:44.999Z,18.50
2023-01-21T06:50:15.880Z,15.90
2023-01-21T06:52:45.284Z,18.80
2023-01-21T06:55:14.724Z,14.60
2023-01-21T06:57:43.349Z,16.40
2023-01-21T07:00:12.418Z,16.50
2023-01-21T07:02:39.698Z,13.30
2023-01-21T07:05:07.627Z,15.90
2023-01-21T07:07:35.573Z,16.60
2023-01-21T07:10:03.747Z,17.30
2023-01-21T07:12:31.776Z,22.10
2023-01-21T07:14:59.053Z,30.60
2023-01-21T07:17:26.444Z,14.30
2023-01-21T07:19:53.499Z,15.10
2023-01-21T07:22:20.516Z,15.20
2023-01-21T07:24:48.469Z,17.30
2023-01-21T07:27:15.775Z,18.00
2023-01-21T07:29:43.725Z,18.80
2023-01-21T07:32:12.071Z,23.60
2023-01-21T07:34:40.200Z,28.50
2023-01-21T07:37:08.748Z,42.00
2023-01-21T07:39:36.993Z,85.60
2023-01-21T07:42:04.396Z,48.50
2023-01-21T07:44:34.775Z,36.30
2023-01-21T07:47:02.790Z,30.90
2023-01-21T07:49:30.036Z,29.90
2023-01-21T07:51:58.071Z,23.40
2023-01-21T07:54:25.283Z,22.80
2023-01-21T07:56:52.350Z,15.10
2023-01-21T07:59:19.545Z,13.30
2023-01-21T08:01:46.875Z,12.70
2023-01-21T08:04:15.997Z,28.00
2023-01-21T08:06:44.119Z,17.40
2023-01-21T08:09:11.358Z,21.40
2023-01-21T08:11:38.542Z,23.80
2023-01-21T08:14:05.906Z,23.00
2023-01-21T08:16:33.135Z,19.70
2023-01-21T08:19:00.316Z,20.40
2023-01-21T08:21:27.650Z,51.60
2023-01-21T08:23:55.452Z,65.80
2023-01-21T08:26:24.834Z,42.50
2023-01-21T08:28:54.718Z,35.70
2023-01-21T08:31:22.573Z,32.80
2023-01-21T08:33:49.753Z,37.60
2023-01-21T08:36:17.228Z,37.90
2023-01-21T08:38:46.676Z,38.20
2023-01-21T08:41:16.122Z,41.20
2023-01-21T08:43:43.234Z,37.20
2023-01-21T08:46:10.492Z,35.30
2023-01-21T08:48:37.873Z,38.90
2023-01-21T08:51:05.244Z,44.20
2023-01-21T08:53:34.163Z,33.90
2023-01-21T08:56:05.011Z,31.50
2023-01-21T08:58:32.609Z,34.60
2023-01-21T09:01:07.144Z,35.10
2023-01-21T09:03:34.229Z,31.90
2023-01-21T09:06:02.212Z,35.10
2023-01-21T09:08:29.780Z,30.80
2023-01-21T09:11:01.721Z,23.70
2023-01-21T09:13:29.351Z,23.30
2023-01-21T09:15:57.306Z,21.30
2023-01-21T09:18:24.977Z,21.30
2023-01-21T09:20:52.811Z,21.30
2023-01-21T09:23:26.457Z,23.50
2023-01-21T09:26:00.381Z,24.10
2023-01-21T09:28:27.799Z,22.40
2023-01-21T09:30:59.404Z,25.10
2023-01-21T09:33:29.547Z,20.60
2023-01-21T09:35:58.768Z,24.90
2023-01-21T09:38:27.141Z,25.90
2023-01-21T09:40:56.584Z,22.30
2023-01-21T09:43:28.751Z,15.00
2023-01-21T09:48:34.695Z,18.20
2023-01-21T09:51:13.382Z,20.20
2023-01-21T09:53:57.292Z,14.60
2023-01-21T09:56:42.367Z,18.10
2023-01-21T09:59:38.191Z,14.80
2023-01-21T10:02:18.103Z,15.40
2023-01-21T10:05:01.267Z,11.10
2023-01-21T10:07:35.541Z,15.80
2023-01-21T10:10:21.523Z,15.70
2023-01-21T10:13:25.279Z,17.10
2023-01-21T10:16:31.256Z,16.40
2023-01-21T10:19:01.067Z,12.50
2023-01-21T10:21:59.839Z,13.40
2023-01-21T10:24:30.148Z,12.30
2023-01-21T10:26:58.991Z,11.70
2023-01-21T10:29:27.192Z,11.90
2023-01-21T10:32:00.889Z,11.60
2023-01-21T10:34:35.571Z,10.00
2023-01-21T10:37:18.736Z,13.00
2023-01-21T10:39:55.337Z,13.50
2023-01-21T10:42:41.280Z,9.90
2023-01-21T10:45:27.389Z,9.90
2023-01-21T10:48:19.158Z,9.90
2023-01-21T10:50:57.167Z,12.20
2023-01-21T10:53:33.167Z,12.70
2023-01-21T10:56:33.523Z,12.30
2023-01-21T10:59:08.133Z,10.80
2023-01-21T11:01:40.200Z,11.80
2023-01-21T11:04:20.985Z,10.70
2023-01-21T11:07:09.728Z,11.70
2023-01-21T11:09:44.601Z,7.80
2023-01-21T11:12:21.095Z,11.10
2023-01-21T11:15:02.720Z,10.40
2023-01-21T11:17:33.732Z,10.10
2023-01-21T11:20:05.002Z,9.10
2023-01-21T11:22:32.555Z,11.40
2023-01-21T11:25:01.765Z,17.90
2023-01-21T11:27:38.066Z,10.60
2023-01-21T11:30:21.107Z,11.00
2023-01-21T11:32:54.405Z,10.60
2023-01-21T11:35:22.994Z,9.70
2023-01-21T11:37:50.176Z,10.30
2023-01-21T11:40:24.915Z,10.50
2023-01-21T11:42:54.777Z,10.60
2023-01-21T11:45:35.768Z,11.80
2023-01-21T11:48:19.306Z,12.30
2023-01-21T11:50:46.580Z,9.90
2023-01-21T11:53:18.924Z,9.70
2023-01-21T11:55:53.917Z,12.40
2023-01-21T11:58:36.818Z,11.40
2023-01-21T12:01:08.034Z,10.40
2023-01-21T12:04:00.093Z,10.10
2023-01-21T12:06:31.906Z,10.50
2023-01-21T12:09:07.296Z,12.30
2023-01-21T12:11:34.320Z,10.00
2023-01-21T12:14:27.417Z,10.30
2023-01-21T12:16:54.711Z,6.60
2023-01-21T12:19:55.284Z,6.20
2023-01-21T12:22:40.891Z,7.20
2023-01-21T12:25:22.323Z,5.80
2023-01-21T12:28:22.168Z,6.00
2023-01-21T12:31:23.259Z,5.10
2023-01-21T12:34:11.672Z,4.50
2023-01-21T12:36:49.271Z,6.80
2023-01-21T12:39:32.188Z,6.00
2023-01-21T12:42:33.565Z,6.40
2023-01-21T12:45:06.211Z,7.00
2023-01-21T12:48:06.469Z,6.00
2023-01-21T12:50:45.745Z,7.40
2023-01-21T12:53:31.675Z,7.60
2023-01-21T12:56:20.299Z,6.70
2023-01-21T12:58:57.487Z,8.80
2023-01-21T13:01:57.123Z,8.20
2023-01-21T13:04:33.655Z,8.30
2023-01-21T13:07:13.198Z,7.40
2023-01-21T13:10:13.107Z,7.40
2023-01-21T13:12:43.757Z,7.70
2023-01-21T13:15:20.781Z,7.80
2023-01-21T13:17:53.420Z,6.90
2023-01-21T13:20:22.210Z,6.70
2023-01-21T13:23:06.557Z,7.10
2023-01-21T13:25:33.611Z,8.30
2023-01-21T13:28:10.897Z,6.80
2023-01-21T13:30:44.839Z,9.10
2023-01-21T13:33:44.300Z,9.80
2023-01-21T13:36:29.987Z,7.80
2023-01-21T13:39:23.225Z,8.00
2023-01-21T13:42:21.084Z,8.90
2023-01-21T13:45:00.562Z,7.40
2023-01-21T13:47:52.035Z,7.50
2023-01-21T13:50:36.175Z,7.90
2023-01-21T13:53:10.386Z,7.20
2023-01-21T13:56:01.077Z,8.20
2023-01-21T13:58:35.498Z,8.60
2023-01-21T14:01:11.361Z,8.20
2023-01-21T14:03:55.188Z,8.90
2023-01-21T14:06:34.419Z,7.80
2023-01-21T14:09:07.564Z,7.60
2023-01-21T14:11:44.181Z,7.90
2023-01-21T14:14:23.634Z,6.90
2023-01-21T14:17:04.288Z,9.40
2023-01-21T14:19:50.161Z,7.90
2023-01-21T14:22:17.551Z,6.90
2023-01-21T14:25:06.678Z,7.00
2023-01-21T14:27:55.121Z,8.10
2023-01-21T14:30:30.809Z,8.50
2023-01-21T14:33:08.829Z,6.90
2023-01-21T14:35:55.074Z,5.80
2023-01-21T14:38:46.368Z,9.70
2023-01-21T14:41:14.199Z,7.80
2023-01-21T14:43:41.631Z,7.00
2023-01-21T14:46:26.709Z,9.30
2023-01-21T14:49:09.950Z,10.00
2023-01-21T14:51:47.645Z,10.60
2023-01-21T14:54:26.719Z,11.20
2023-01-21T14:57:04.174Z,11.80
2023-01-21T14:59:43.036Z,9.90
2023-01-21T15:02:22.896Z,10.90
2023-01-21T15:05:03.399Z,12.00
2023-01-21T15:07:39.170Z,12.40
2023-01-21T15:10:15.574Z,17.20
2023-01-21T15:12:52.366Z,14.40
2023-01-21T15:15:32.628Z,12.20
2023-01-21T15:18:03.532Z,10.90
2023-01-21T15:20:45.190Z,17.00
2023-01-21T15:23:28.733Z,12.60
2023-01-21T15:26:04.915Z,13.70
2023-01-21T15:28:40.358Z,17.00
2023-01-21T15:31:13.734Z,17.10
2023-01-21T15:33:46.919Z,21.10
2023-01-21T15:36:21.808Z,13.10
2023-01-21T15:39:31.844Z,14.50
2023-01-21T15:42:21.917Z,14.50
2023-01-21T15:44:49.643Z,9.80
2023-01-21T15:47:42.387Z,10.70
2023-01-21T15:50:20.459Z,17.30
2023-01-21T15:53:28.039Z,17.00
2023-01-21T15:56:07.789Z,24.50
2023-01-21T15:58:40.665Z,29.00
2023-01-21T16:01:16.650Z,54.70
2023-01-21T16:03:57.939Z,45.20
2023-01-21T16:06:59.120Z,27.90
2023-01-21T16:09:33.456Z,25.20
2023-01-21T16:12:14.276Z,42.50
2023-01-21T16:15:19.300Z,39.00
2023-01-21T16:17:53.555Z,41.00
2023-01-21T16:20:20.862Z,65.10
2023-01-21T16:22:51.546Z,52.90
2023-01-21T16:25:22.521Z,52.80
2023-01-21T16:27:55.639Z,46.90
2023-01-21T16:30:31.945Z,51.90
2023-01-21T16:33:16.021Z,56.60
2023-01-21T16:35:49.874Z,48.50
2023-01-21T16:38:20.240Z,46.80
2023-01-21T16:40:49.370Z,70.90
2023-01-21T16:43:27.380Z,53.60
2023-01-21T16:45:57.532Z,41.60
2023-01-21T16:48:28.690Z,44.20
2023-01-21T16:50:56.234Z,43.70
2023-01-21T16:53:24.418Z,45.50
2023-01-21T16:55:54.408Z,41.30
2023-01-21T16:58:29.113Z,40.50
2023-01-21T17:01:16.713Z,32.80
2023-01-21T17:03:46.627Z,29.70
2023-01-21T17:06:19.620Z,29.50
2023-01-21T17:08:53.319Z,29.20
2023-01-21T17:11:22.345Z,30.10
2023-01-21T17:13:49.888Z,30.70
2023-01-21T17:16:28.784Z,25.10
2023-01-21T17:19:21.503Z,27.30
2023-01-21T17:21:55.083Z,27.40
2023-01-21T17:24:30.442Z,30.70
2023-01-21T17:27:03.925Z,28.80
2023-01-21T17:29:33.304Z,24.00
2023-01-21T17:32:06.371Z,21.80
2023-01-21T17:34:37.468Z,28.40
2023-01-21T17:37:43.425Z,32.70
2023-01-21T17:40:40.805Z,69.60
2023-01-21T17:43:20.849Z,61.10
2023-01-21T17:45:49.688Z,38.10
2023-01-21T17:48:29.445Z,46.00
2023-01-21T17:51:26.520Z,70.30
2023-01-21T17:54:06.020Z,70.20
2023-01-21T17:56:34.293Z,73.30
2023-01-21T17:59:04.536Z,72.60
2023-01-21T18:01:34.567Z,90.20
2023-01-21T18:04:02.718Z,60.30
2023-01-21T18:06:29.865Z,41.60
2023-01-21T18:08:57.572Z,39.30
2023-01-21T18:11:25.325Z,34.90
2023-01-21T18:13:53.871Z,29.20
2023-01-21T18:16:21.794Z,39.30
2023-01-21T18:18:50.034Z,63.90
2023-01-21T18:21:19.701Z,47.50
2023-01-21T18:23:47.927Z,40.30
2023-01-21T18:26:25.041Z,39.40
2023-01-21T18:28:52.630Z,37.30
2023-01-21T18:31:20.756Z,35.40
2023-01-21T18:33:48.165Z,33.90
2023-01-21T18:36:16.125Z,33.10
2023-01-21T18:38:44.648Z,31.50
2023-01-21T18:41:12.914Z,21.60
2023-01-21T18:43:41.446Z,24.60
2023-01-21T18:46:19.985Z,30.50
2023-01-21T18:48:47.304Z,21.70
2023-01-21T18:51:14.613Z,20.90
2023-01-21T18:53:41.668Z,16.70
2023-01-21T18:56:13.793Z,20.20
2023-01-21T18:58:41.928Z,24.70
2023-01-21T19:01:21.998Z,18.70
2023-01-21T19:03:53.431Z,29.30
2023-01-21T19:06:24.351Z,37.50
2023-01-21T19:08:51.603Z,51.10
2023-01-21T19:11:18.722Z,41.70
2023-01-21T19:13:46.412Z,57.50
2023-01-21T19:16:17.537Z,60.00
2023-01-21T19:18:46.166Z,71.50
2023-01-21T19:21:13.542Z,50.30
2023-01-21T19:23:41.461Z,60.60
2023-01-21T19:26:11.858Z,48.70
2023-01-21T19:28:39.084Z,49.20
2023-01-21T19:31:06.785Z,50.30
2023-01-21T19:33:34.210Z,49.50
2023-01-21T19:36:10.591Z,46.10
2023-01-21T19:38:38.743Z,42.50
2023-01-21T19:41:06.591Z,33.60
2023-01-21T19:43:34.096Z,36.60
2023-01-21T19:46:01.614Z,31.20
2023-01-21T19:48:28.911Z,30.30
2023-01-21T19:50:56.220Z,38.20
2023-01-21T19:53:24.053Z,28.70
2023-01-21T19:55:51.520Z,23.80
2023-01-21T19:58:22.104Z,22.20
2023-01-21T20:00:52.960Z,38.50
2023-01-21T20:03:23.836Z,43.10
2023-01-21T20:05:57.275Z,51.00
2023-01-21T20:08:28.125Z,63.00
2023-01-21T20:10:55.672Z,35.50
2023-01-21T20:13:23.436Z,30.10
2023-01-21T20:15:51.777Z,45.70
2023-01-21T20:18:24.122Z,71.80
2023-01-21T20:20:52.469Z,58.00
2023-01-21T20:23:23.014Z,52.40
2023-01-21T20:25:54.485Z,38.90
2023-01-21T20:28:24.795Z,37.90
2023-01-21T20:30:53.858Z,38.00
2023-01-21T20:33:23.263Z,50.00
2023-01-21T20:35:54.348Z,51.60
2023-01-21T20:38:31.053Z,47.60
2023-01-21T20:40:59.854Z,46.60
2023-01-21T20:43:28.483Z,44.90
2023-01-21T20:46:04.146Z,38.50
2023-01-21T20:48:36.049Z,34.50
2023-01-21T20:51:03.612Z,29.70
2023-01-21T20:53:31.386Z,33.60
2023-01-21T20:56:02.555Z,39.30
2023-01-21T20:58:29.783Z,33.40
2023-01-21T21:00:56.925Z,29.30
2023-01-21T21:03:24.302Z,26.80
2023-01-21T21:05:51.450Z,25.60
2023-01-21T21:08:21.061Z,25.10
2023-01-21T21:10:50.304Z,22.60
2023-01-21T21:13:17.729Z,25.30
2023-01-21T21:15:46.625Z,24.20
2023-01-21T21:18:14.277Z,20.10
2023-01-21T21:20:42.130Z,19.50
2023-01-21T21:23:13.994Z,22.50
2023-01-21T21:25:46.560Z,29.60
2023-01-21T21:28:18.360Z,44.90
2023-01-21T21:30:45.560Z,46.20
2023-01-21T21:33:21.765Z,33.50
2023-01-21T21:35:49.369Z,41.80
2023-01-21T21:38:21.372Z,56.20
2023-01-21T21:40:52.451Z,82.20
2023-01-21T21:43:35.025Z,69.20
2023-01-21T21:46:30.010Z,43.30
2023-01-21T21:48:57.375Z,46.00
2023-01-21T21:51:24.749Z,45.00
2023-01-21T21:53:51.912Z,44.20
2023-01-21T21:56:22.001Z,51.70
2023-01-21T21:58:50.422Z,35.50
2023-01-21T22:01:20.424Z,58.50
2023-01-21T22:03:48.444Z,80.40
2023-01-21T22:06:18.116Z,58.30
2023-01-21T22:08:45.602Z,58.00
2023-01-21T22:11:18.382Z,68.50
2023-01-21T22:13:50.998Z,72.30
2023-01-21T22:16:29.442Z,65.10
2023-01-21T22:18:58.350Z,62.10
2023-01-21T22:21:28.115Z,56.30
2023-01-21T22:23:55.345Z,37.90
2023-01-21T22:26:24.390Z,29.90
2023-01-21T22:28:52.506Z,28.10
2023-01-21T22:31:22.369Z,28.60
2023-01-21T22:33:49.843Z,39.70
2023-01-21T22:36:19.507Z,46.60
2023-01-21T22:38:47.669Z,53.60
2023-01-21T22:41:17.547Z,38.40
2023-01-21T22:43:47.812Z,31.10
2023-01-21T22:46:17.789Z,28.20
2023-01-21T22:48:46.133Z,29.50
2023-01-21T22:51:16.154Z,22.60
2023-01-21T22:53:46.078Z,26.50
2023-01-21T22:56:15.345Z,21.30
2023-01-21T22:58:43.317Z,13.80
2023-01-21T23:01:26.059Z,33.60
2023-01-21T23:03:53.801Z,22.30
2023-01-21T23:06:21.586Z,22.00
2023-01-21T23:08:49.038Z,19.60
2023-01-21T23:11:18.553Z,25.20
2023-01-21T23:13:48.705Z,23.30
2023-01-21T23:16:18.533Z,22.30
2023-01-21T23:18:46.242Z,20.00
2023-01-21T23:21:19.672Z,12.70
2023-01-21T23:23:46.957Z,13.10
2023-01-21T23:26:14.889Z,13.90
2023-01-21T23:28:42.738Z,11.80
2023-01-21T23:31:14.508Z,14.50
2023-01-21T23:33:42.190Z,21.90
2023-01-21T23:36:12.297Z,16.60
2023-01-21T23:38:40.594Z,24.10
2023-01-21T23:41:10.760Z,17.40
2023-01-21T23:43:38.578Z,16.80
2023-01-21T23:46:15.815Z,20.70
2023-01-21T23:48:43.311Z,46.20
2023-01-21T23:51:13.247Z,26.90
2023-01-21T23:53:40.546Z,23.30
2023-01-21T23:56:08.267Z,35.30
2023-01-21T23:58:35.514Z,24.70
